Time;durP1;ratioP1;P1;durP2;ratioP2;P2;SDS_P1;SDS_P2;PMS_P1;PMS_P2;Temp;Humidity;BMP_temperature;BMP_pressure;BME280_temperature;BME280_humidity;BME280_pressure;Samples;Min_cycle;Max_cycle;Signal;HPM_P1;HPM_P2
2023/01/21 00:01:55;;;;;;;3.60;1.98;;;-2.30;99.90;;;;;;4991720;28;20039;-85
2023/01/21 00:04:21;;;;;;;0.80;0.80;;;-2.30;99.90;;;;;;4976398;28;20385;-85
2023/01/21 00:06:48;;;;;;;0.70;0.70;;;-2.30;99.90;;;;;;4966518;28;20083;-86
2023/01/21 00:09:14;;;;;;;0.70;0.70;;;-2.30;99.90;;;;;;4994112;28;20043;-85
2023/01/21 00:11:39;;;;;;;;;;;-1.00;99.90;;;;;;4959242;28;20071;-86
2023/01/21 00:14:05;;;;;;;0.80;0.80;;;-2.30;99.90;;;;;;4993658;28;19925;-85
2023/01/21 00:16:31;;;;;;;0.80;0.80;;;-0.40;99.90;;;;;;4978163;28;20046;-85
2023/01/21 00:18:57;;;;;;;0.80;0.80;;;-2.40;99.90;;;;;;4998680;28;20089;-85
2023/01/21 00:21:22;;;;;;;0.60;0.60;;;-1.60;99.90;;;;;;4985613;28;20077;-85
2023/01/21 00:23:48;;;;;;;;;;;-2.50;99.90;;;;;;4996492;28;20519;-85
2023/01/21 00:26:13;;;;;;;0.80;0.80;;;-0.90;99.90;;;;;;4994880;28;20442;-86
2023/01/21 00:28:43;;;;;;;;;;;-2.60;99.90;;;;;;4982834;28;20480;-85
2023/01/21 00:31:26;;;;;;;0.70;0.70;;;-2.60;99.90;;;;;;5008671;28;19983;-85
2023/01/21 00:33:52;;;;;;;0.70;0.70;;;-2.60;99.90;;;;;;4992061;28;20054;-84
2023/01/21 00:36:17;;;;;;;0.93;0.93;;;-2.80;99.90;;;;;;4990733;28;21006;-84
2023/01/21 00:38:47;;;;;;;0.70;0.70;;;-2.70;99.90;;;;;;4995808;28;20469;-84
2023/01/21 00:41:13;;;;;;;0.68;0.68;;;-2.80;99.90;;;;;;4976262;28;20523;-84
2023/01/21 00:43:40;;;;;;;0.82;0.82;;;-2.80;99.90;;;;;;4994131;28;20065;-84
2023/01/21 00:46:06;;;;;;;0.80;0.80;;;-2.80;99.90;;;;;;4979300;28;20042;-84
2023/01/21 00:48:32;;;;;;;;;;;-2.70;99.90;;;;;;4995514;28;20042;-84
2023/01/21 00:50:59;;;;;;;1.33;1.30;;;-1.40;99.90;;;;;;4975785;28;20056;-84
2023/01/21 00:53:26;;;;;;;0.80;0.80;;;-1.90;99.90;;;;;;4999888;28;20518;-84
2023/01/21 00:55:52;;;;;;;0.82;0.82;;;-2.90;99.90;;;;;;4985986;28;20082;-84
2023/01/21 00:58:18;;;;;;;;;;;-3.00;99.90;;;;;;4993384;28;20140;-84
2023/01/21 01:00:44;;;;;;;0.80;0.80;;;-2.90;99.90;;;;;;4976339;28;20450;-85
2023/01/21 01:03:09;;;;;;;0.90;0.90;;;-2.90;99.90;;;;;;4997438;28;20046;-85
2023/01/21 01:05:36;;;;;;;0.85;0.85;;;-2.90;99.90;;;;;;5011057;28;20026;-84
2023/01/21 01:08:02;;;;;;;0.80;0.80;;;-2.40;99.90;;;;;;4980953;28;20044;-86
2023/01/21 01:10:27;;;;;;;;;;;-3.00;99.90;;;;;;4973635;28;20042;-85
2023/01/21 01:12:53;;;;;;;0.60;0.60;;;-3.00;99.90;;;;;;4988592;28;20448;-85
2023/01/21 01:15:18;;;;;;;;;;;-3.10;99.90;;;;;;4994306;28;20038;-85
2023/01/21 01:17:44;;;;;;;2.45;2.35;;;-3.00;99.90;;;;;;4991008;28;19918;-85
2023/01/21 01:20:10;;;;;;;;;;;-2.30;99.90;;;;;;4993745;28;20036;-85
2023/01/21 01:22:36;;;;;;;0.70;0.70;;;-3.00;99.90;;;;;;4975788;28;19918;-85
2023/01/21 01:25:01;;;;;;;0.90;0.90;;;-3.00;99.90;;;;;;4990505;28;20074;-84
2023/01/21 01:27:29;;;;;;;0.60;0.60;;;-3.10;99.90;;;;;;4975485;28;20096;-85
2023/01/21 01:29:54;;;;;;;1.17;1.17;;;-3.00;99.90;;;;;;4992035;28;20049;-84
2023/01/21 01:32:20;;;;;;;0.50;0.50;;;-3.00;99.90;;;;;;4990766;28;20046;-85
2023/01/21 01:34:46;;;;;;;;;;;-2.20;99.90;;;;;;4972322;28;20039;-83
2023/01/21 01:37:11;;;;;;;0.80;0.80;;;-3.00;99.90;;;;;;4992470;28;19929;-84
2023/01/21 01:39:37;;;;;;;;;;;-3.10;99.90;;;;;;4989910;28;20047;-85
2023/01/21 01:42:02;;;;;;;0.80;0.80;;;-3.10;99.90;;;;;;4991632;28;20367;-83
2023/01/21 01:44:47;;;;;;;;;;;-3.20;99.90;;;;;;4988627;28;20054;-83
2023/01/21 01:47:13;;;;;;;0.70;0.70;;;-3.10;99.90;;;;;;4987711;28;19918;-83
2023/01/21 01:49:40;;;;;;;0.80;0.80;;;-3.00;99.90;;;;;;4992084;28;20046;-82
2023/01/21 01:52:11;;;;;;;0.90;0.90;;;-3.20;99.90;;;;;;4992468;28;20049;-84
2023/01/21 01:54:42;;;;;;;0.80;0.80;;;-3.20;99.90;;;;;;4992803;28;20073;-85
2023/01/21 01:57:11;;;;;;;0.82;0.82;;;-3.20;99.90;;;;;;4988360;28;20069;-83
2023/01/21 01:59:39;;;;;;;0.80;0.80;;;-3.20;99.90;;;;;;5006963;28;20042;-84
2023/01/21 02:02:08;;;;;;;0.70;0.70;;;-3.30;99.90;;;;;;4988080;28;20084;-84
2023/01/21 02:04:48;;;;;;;0.70;0.70;;;-3.10;99.90;;;;;;4995927;28;20050;-84
2023/01/21 02:07:16;;;;;;;0.70;0.70;;;-3.30;99.90;;;;;;4975194;28;20384;-82
2023/01/21 02:09:41;;;;;;;0.80;0.80;;;-3.30;99.90;;;;;;4972794;28;21462;-83
2023/01/21 02:12:08;;;;;;;;;;;-3.30;99.90;;;;;;4973040;28;20039;-83
2023/01/21 02:14:41;;;;;;;0.70;0.70;;;-3.20;99.90;;;;;;4990556;28;19918;-83
2023/01/21 02:17:45;;;;;;;0.80;0.80;;;-3.10;99.90;;;;;;4986554;28;20046;-84
2023/01/21 02:20:38;;;;;;;2.50;1.67;;;-3.10;99.90;;;;;;4989570;28;20916;-84
2023/01/21 02:23:23;;;;;;;0.73;0.73;;;-3.10;99.90;;;;;;4992305;28;20046;-84
2023/01/21 02:26:10;;;;;;;0.80;0.80;;;-3.10;99.90;;;;;;4987669;28;20049;-84
2023/01/21 02:28:50;;;;;;;0.65;0.65;;;-3.10;99.90;;;;;;4983134;28;20050;-84
2023/01/21 02:31:42;;;;;;;0.90;0.90;;;-3.00;99.90;;;;;;4972371;28;20110;-83
2023/01/21 02:34:31;;;;;;;1.17;1.17;;;-3.10;99.90;;;;;;4985077;28;20481;-84
2023/01/21 02:37:09;;;;;;;1.00;1.00;;;-3.10;99.90;;;;;;4984695;28;20054;-83
2023/01/21 02:39:56;;;;;;;0.90;0.90;;;-3.10;99.90;;;;;;4989123;28;20100;-83
2023/01/21 02:42:45;;;;;;;0.80;0.80;;;-3.10;99.90;;;;;;4984341;28;20086;-84
2023/01/21 02:45:24;;;;;;;0.63;0.63;;;-3.10;99.90;;;;;;4989049;28;20045;-84
2023/01/21 02:48:16;;;;;;;0.77;0.77;;;-3.00;99.90;;;;;;4989607;28;20057;-83
2023/01/21 02:50:47;;;;;;;0.60;0.60;;;-3.00;99.90;;;;;;4988516;28;20435;-84
2023/01/21 02:53:26;;;;;;;0.75;0.75;;;-2.90;99.90;;;;;;4986178;28;20093;-83
2023/01/21 02:55:54;;;;;;;0.60;0.60;;;-3.00;99.90;;;;;;4988636;28;20132;-83
2023/01/21 02:58:33;;;;;;;0.70;0.70;;;-3.00;99.90;;;;;;4985042;28;20045;-84
2023/01/21 03:01:25;;;;;;;0.63;0.63;;;-3.00;99.90;;;;;;4985709;28;20104;-84
2023/01/21 03:04:15;;;;;;;0.55;0.55;;;-3.10;99.90;;;;;;4988605;28;20057;-84
2023/01/21 03:07:00;;;;;;;0.60;0.60;;;-3.10;99.90;;;;;;4987715;28;20054;-84
2023/01/21 03:09:31;;;;;;;2.55;2.38;;;-3.10;99.90;;;;;;4990257;28;20112;-84
2023/01/21 03:12:08;;;;;;;1.88;0.95;;;-3.00;99.90;;;;;;4990034;28;20049;-84
2023/01/21 03:17:40;;;;;;;0.63;0.63;;;-2.90;99.90;;;;;;4989284;28;20050;-84
2023/01/21 03:20:21;;;;;;;0.70;0.70;;;-2.90;99.90;;;;;;4992203;28;20042;-84
2023/01/21 03:22:48;;;;;;;0.90;0.90;;;-2.90;99.90;;;;;;5001892;28;20093;-84
2023/01/21 03:25:16;;;;;;;1.05;1.02;;;-2.90;99.90;;;;;;5002095;28;20050;-86
2023/01/21 03:27:45;;;;;;;0.60;0.60;;;-2.90;99.90;;;;;;4989330;28;20050;-84
2023/01/21 03:30:20;;;;;;;0.80;0.80;;;-2.90;99.90;;;;;;4988742;28;20045;-83
2023/01/21 03:32:49;;;;;;;0.80;0.80;;;-2.90;99.90;;;;;;4988042;28;20054;-84
2023/01/21 03:35:24;;;;;;;0.80;0.80;;;-2.90;99.90;;;;;;4984942;28;20392;-82
2023/01/21 03:38:16;;;;;;;0.90;0.90;;;-2.30;99.90;;;;;;4988049;28;20046;-83
2023/01/21 03:40:47;;;;;;;0.70;0.70;;;-2.90;99.90;;;;;;4982605;28;20474;-84
2023/01/21 03:43:13;;;;;;;0.75;0.75;;;-2.80;99.90;;;;;;5002824;28;20042;-83
2023/01/21 03:45:51;;;;;;;0.80;0.80;;;-2.70;99.90;;;;;;4997537;28;20046;-83
2023/01/21 03:48:35;;;;;;;1.00;1.00;;;-2.60;99.90;;;;;;4988645;28;20053;-83
2023/01/21 03:51:07;;;;;;;2.35;2.25;;;-2.50;99.90;;;;;;4993243;28;20050;-83
2023/01/21 03:53:33;;;;;;;0.80;0.80;;;-2.30;99.90;;;;;;4974791;28;20046;-83
2023/01/21 03:55:59;;;;;;;0.90;0.90;;;-2.20;99.90;;;;;;4977033;28;20077;-83
2023/01/21 03:58:25;;;;;;;0.80;0.80;;;-2.10;99.90;;;;;;4994258;28;20496;-83
2023/01/21 04:00:51;;;;;;;0.82;0.82;;;-2.10;99.90;;;;;;4992143;28;20085;-83
2023/01/21 04:03:17;;;;;;;0.90;0.90;;;-1.70;99.90;;;;;;4992675;28;20046;-83
2023/01/21 04:05:42;;;;;;;;;;;-1.90;99.90;;;;;;4991942;28;20415;-83
2023/01/21 04:08:08;;;;;;;0.70;0.70;;;-1.80;99.90;;;;;;4976530;28;19924;-82
2023/01/21 04:10:33;;;;;;;0.80;0.80;;;-1.80;99.90;;;;;;4990435;28;20046;-83
2023/01/21 04:12:59;;;;;;;0.80;0.80;;;-1.00;99.90;;;;;;4988924;28;20097;-83
2023/01/21 04:15:25;;;;;;;;;;;-1.70;99.90;;;;;;4992850;28;20044;-83
2023/01/21 04:17:50;;;;;;;0.77;0.77;;;-1.70;99.90;;;;;;4991188;28;19944;-83
2023/01/21 04:20:17;;;;;;;;;;;-1.70;99.90;;;;;;4976550;28;20117;-83
2023/01/21 04:22:43;;;;;;;0.80;0.80;;;-1.70;99.90;;;;;;4991528;28;19918;-81
2023/01/21 04:25:08;;;;;;;0.77;0.77;;;-1.50;99.90;;;;;;4989628;28;20108;-82
2023/01/21 04:27:34;;;;;;;0.70;0.70;;;-1.60;99.90;;;;;;4991922;28;20034;-83
2023/01/21 04:30:00;;;;;;;0.80;0.80;;;-1.50;99.90;;;;;;4975251;28;20057;-83
2023/01/21 04:32:26;;;;;;;0.68;0.68;;;-0.50;99.90;;;;;;4975386;28;20129;-83
2023/01/21 04:34:52;;;;;;;0.50;0.50;;;-1.50;99.90;;;;;;4968742;28;20442;-84
2023/01/21 04:37:17;;;;;;;;;;;-1.40;99.90;;;;;;4990686;28;20817;-84
2023/01/21 04:39:43;;;;;;;1.40;1.30;;;-1.10;99.90;;;;;;4992448;28;19918;-83
2023/01/21 04:42:09;;;;;;;0.80;0.80;;;-1.40;99.90;;;;;;4988801;28;20066;-84
2023/01/21 04:44:34;;;;;;;0.80;0.80;;;-1.40;99.90;;;;;;4973215;28;20096;-83
2023/01/21 04:47:00;;;;;;;0.70;0.70;;;-1.40;99.90;;;;;;4997542;28;21062;-84
2023/01/21 04:49:26;;;;;;;0.75;0.75;;;-1.40;99.90;;;;;;4997113;28;20045;-84
2023/01/21 04:51:51;;;;;;;0.80;0.80;;;-1.40;99.90;;;;;;4991299;28;20104;-84
2023/01/21 04:54:17;;;;;;;0.80;0.80;;;-1.30;99.90;;;;;;4985234;28;20062;-84
2023/01/21 04:56:42;;;;;;;0.73;0.73;;;-1.40;99.90;;;;;;4994379;28;22081;-84
2023/01/21 04:59:10;;;;;;;0.77;0.77;;;-1.40;99.90;;;;;;4986088;28;20039;-84
2023/01/21 05:01:35;;;;;;;0.85;0.85;;;-1.40;99.90;;;;;;4989024;28;20112;-85
2023/01/21 05:04:01;;;;;;;0.80;0.80;;;-1.40;99.90;;;;;;4991482;28;20559;-84
2023/01/21 05:06:27;;;;;;;0.70;0.70;;;-1.40;99.90;;;;;;4991331;28;20034;-84
2023/01/21 05:08:52;;;;;;;0.80;0.80;;;-1.40;99.90;;;;;;4993090;28;20488;-84
2023/01/21 05:11:19;;;;;;;0.70;0.70;;;-1.20;99.90;;;;;;4975455;28;20566;-84
2023/01/21 05:13:45;;;;;;;0.65;0.65;;;-1.50;99.90;;;;;;4992097;28;20042;-84
2023/01/21 05:16:13;;;;;;;0.70;0.70;;;-0.40;99.90;;;;;;4974221;28;20038;-84
2023/01/21 05:18:39;;;;;;;0.80;0.80;;;-2.00;99.90;;;;;;4975807;28;20442;-84
2023/01/21 05:21:06;;;;;;;0.70;0.70;;;-1.60;99.90;;;;;;4990816;28;20889;-84
2023/01/21 05:23:32;;;;;;;1.60;1.50;;;-1.70;99.90;;;;;;4991547;28;20046;-84
2023/01/21 05:25:57;;;;;;;0.90;0.90;;;-1.70;99.90;;;;;;4993703;28;20120;-84
2023/01/21 05:28:24;;;;;;;0.80;0.80;;;-1.80;99.90;;;;;;4993069;28;20112;-84
2023/01/21 05:30:49;;;;;;;;;;;-1.90;99.90;;;;;;4972911;28;20073;-83
2023/01/21 05:33:15;;;;;;;0.70;0.70;;;-2.00;99.90;;;;;;4976582;28;20351;-83
2023/01/21 05:35:40;;;;;;;;;;;-2.10;99.90;;;;;;4990122;28;20049;-83
2023/01/21 05:38:06;;;;;;;0.60;0.60;;;-2.10;99.90;;;;;;4989976;28;20372;-83
2023/01/21 05:40:32;;;;;;;1.10;1.10;;;-2.20;99.90;;;;;;4991694;28;20077;-84
2023/01/21 05:42:57;;;;;;;;;;;-2.30;99.90;;;;;;4989528;28;20504;-85
2023/01/21 05:45:23;;;;;;;0.77;0.77;;;-2.30;99.90;;;;;;4981921;28;20004;-85
2023/01/21 05:47:49;;;;;;;0.68;0.68;;;-2.40;99.90;;;;;;5004217;28;20042;-85
2023/01/21 05:50:14;;;;;;;0.70;0.70;;;-1.90;99.90;;;;;;4985414;28;21424;-84
2023/01/21 05:52:40;;;;;;;0.70;0.70;;;-2.50;99.90;;;;;;4990969;28;20038;-84
2023/01/21 05:55:06;;;;;;;;;;;-2.50;99.90;;;;;;4987178;28;20043;-83
2023/01/21 05:57:33;;;;;;;0.70;0.70;;;-2.50;99.90;;;;;;5009808;28;19925;-83
2023/01/21 05:59:59;;;;;;;0.60;0.60;;;-2.60;99.90;;;;;;4987030;28;20045;-85
2023/01/21 06:02:25;;;;;;;0.80;0.80;;;-2.20;99.90;;;;;;4986161;28;20039;-85
2023/01/21 06:04:51;;;;;;;0.80;0.80;;;-2.60;99.90;;;;;;4986391;28;20095;-85
2023/01/21 06:07:16;;;;;;;0.70;0.70;;;-2.70;99.90;;;;;;4988890;28;20042;-84
2023/01/21 06:09:42;;;;;;;;;;;-2.70;99.90;;;;;;4991857;28;20120;-84
2023/01/21 06:12:08;;;;;;;0.90;0.90;;;-2.80;99.90;;;;;;4963821;28;19918;-84
2023/01/21 06:14:33;;;;;;;0.80;0.80;;;-3.50;99.90;;;;;;5007747;28;20046;-83
2023/01/21 06:16:59;;;;;;;0.80;0.80;;;-1.20;99.90;;;;;;4974497;28;20125;-85
2023/01/21 06:19:25;;;;;;;;;;;-2.90;99.90;;;;;;4976039;28;20800;-85
2023/01/21 06:21:51;;;;;;;0.80;0.80;;;-1.50;99.90;;;;;;4989269;28;19945;-84
2023/01/21 06:24:17;;;;;;;0.70;0.70;;;-3.10;99.90;;;;;;4971073;28;20056;-84
2023/01/21 06:26:43;;;;;;;;;;;-1.80;99.90;;;;;;4991553;28;20050;-85
2023/01/21 06:29:08;;;;;;;0.75;0.75;;;-3.10;99.90;;;;;;4984395;28;19929;-84
2023/01/21 06:31:35;;;;;;;;;;;-2.30;99.90;;;;;;4987936;28;20467;-84
2023/01/21 06:34:01;;;;;;;0.80;0.80;;;-3.10;99.90;;;;;;4968935;28;20017;-84
2023/01/21 06:36:26;;;;;;;;;;;-1.70;99.90;;;;;;4992662;28;20109;-85
2023/01/21 06:38:52;;;;;;;0.80;0.80;;;-3.20;99.90;;;;;;4985929;28;19969;-85
2023/01/21 06:41:18;;;;;;;;;;;-3.00;99.90;;;;;;4996723;28;20046;-85
2023/01/21 06:43:43;;;;;;;0.70;0.70;;;-3.20;99.90;;;;;;4974771;28;19924;-83
2023/01/21 06:46:10;;;;;;;;;;;-3.20;99.90;;;;;;4988475;28;20455;-83
2023/01/21 06:48:35;;;;;;;0.70;0.70;;;-3.20;99.90;;;;;;5006424;28;19908;-83
2023/01/21 06:51:01;;;;;;;;;;;-3.20;99.90;;;;;;4974237;28;20050;-84
2023/01/21 06:53:27;;;;;;;0.70;0.70;;;-3.20;99.90;;;;;;4993082;28;20291;-84
2023/01/21 06:55:53;;;;;;;;;;;-3.20;99.90;;;;;;4973730;28;20047;-83
2023/01/21 06:58:18;;;;;;;0.80;0.80;;;-3.10;99.90;;;;;;4990566;28;19917;-83
2023/01/21 07:00:44;;;;;;;1.23;1.23;;;-3.10;99.90;;;;;;4976245;28;20057;-83
2023/01/21 07:03:09;;;;;;;0.73;0.73;;;-3.10;99.90;;;;;;4987655;28;20121;-83
2023/01/21 07:05:35;;;;;;;0.80;0.80;;;-3.10;99.90;;;;;;4989036;28;20046;-83
2023/01/21 07:08:01;;;;;;;;;;;-3.20;99.90;;;;;;4972319;28;20518;-84
2023/01/21 07:10:27;;;;;;;0.77;0.77;;;-3.20;99.90;;;;;;4991177;28;19921;-84
2023/01/21 07:12:52;;;;;;;;;;;-3.30;99.90;;;;;;4986071;28;20043;-84
2023/01/21 07:15:18;;;;;;;0.80;0.80;;;-3.30;99.90;;;;;;4971333;28;19922;-84
2023/01/21 07:17:44;;;;;;;;;;;-3.40;99.90;;;;;;4994855;28;20498;-83
2023/01/21 07:20:11;;;;;;;0.80;0.80;;;-3.40;99.90;;;;;;4991019;28;19925;-83
2023/01/21 07:22:37;;;;;;;5.97;5.40;;;-3.40;99.90;;;;;;4994911;28;20043;-84
2023/01/21 07:25:03;;;;;;;;;;;-3.40;99.90;;;;;;4976656;28;20050;-84
2023/01/21 07:27:29;;;;;;;1.00;1.00;;;-3.40;99.90;;;;;;4995052;28;19918;-84
2023/01/21 07:29:55;;;;;;;;;;;-3.40;99.90;;;;;;4960065;28;20422;-84
2023/01/21 07:32:20;;;;;;;2.08;1.88;;;-3.40;99.90;;;;;;4993696;28;19961;-84
2023/01/21 07:34:46;;;;;;;0.90;0.90;;;-3.40;99.90;;;;;;4992924;28;20054;-84
2023/01/21 07:37:12;;;;;;;;;;;-4.50;99.90;;;;;;4996264;28;20109;-84
2023/01/21 07:39:37;;;;;;;0.70;0.70;;;-2.20;99.90;;;;;;4992432;28;19922;-84
2023/01/21 07:42:03;;;;;;;;;;;-3.10;99.90;;;;;;4978005;28;20188;-84
2023/01/21 07:44:29;;;;;;;0.82;0.82;;;-3.20;99.90;;;;;;4992053;28;19925;-85
2023/01/21 07:46:54;;;;;;;;;;;-3.10;99.90;;;;;;4989981;28;20042;-85
2023/01/21 07:49:20;;;;;;;0.90;0.90;;;-3.10;99.90;;;;;;4993738;28;19918;-84
2023/01/21 07:51:46;;;;;;;1.30;1.25;;;-3.10;99.90;;;;;;4989638;28;20493;-86
2023/01/21 07:54:13;;;;;;;2.38;2.28;;;-2.80;99.90;;;;;;4969735;28;20720;-87
2023/01/21 07:56:39;;;;;;;0.80;0.80;;;-1.50;99.90;;;;;;4973044;28;20038;-86
2023/01/21 07:59:05;;;;;;;0.90;0.90;;;-2.80;99.90;;;;;;4978738;28;21640;-86
2023/01/21 08:01:31;;;;;;;;;;;-2.80;99.90;;;;;;4976843;28;20041;-86
2023/01/21 08:04:00;;;;;;;0.77;0.77;;;-3.20;99.90;;;;;;4977821;28;19917;-86
2023/01/21 08:06:26;;;;;;;0.80;0.80;;;-3.20;99.90;;;;;;4977486;28;20042;-86
2023/01/21 08:08:51;;;;;;;;;;;-3.20;99.90;;;;;;4977370;28;20048;-85
2023/01/21 08:11:17;;;;;;;0.80;0.80;;;-3.10;99.90;;;;;;4993265;28;19917;-86
2023/01/21 08:13:43;;;;;;;0.80;0.80;;;-1.30;99.90;;;;;;4978918;28;20569;-88
2023/01/21 08:16:10;;;;;;;;;;;-2.90;99.90;;;;;;4970094;28;20053;-86
2023/01/21 08:18:39;;;;;;;0.80;0.80;;;-2.90;99.90;;;;;;4977071;28;19917;-88
2023/01/21 08:21:05;;;;;;;1.00;1.00;;;-2.90;99.90;;;;;;4977821;28;20045;-84
2023/01/21 08:23:30;;;;;;;;;;;-2.90;99.90;;;;;;4991645;28;20121;-83
2023/01/21 08:26:00;;;;;;;1.65;1.55;;;-3.00;99.90;;;;;;4973168;28;19917;-86
2023/01/21 08:28:26;;;;;;;0.90;0.90;;;-3.00;99.90;;;;;;4969805;28;20133;-83
2023/01/21 08:30:52;;;;;;;;;;;-2.90;99.90;;;;;;4977364;28;20126;-85
2023/01/21 08:33:18;;;;;;;0.80;0.80;;;-2.90;99.90;;;;;;4990085;28;19965;-86
2023/01/21 08:35:43;;;;;;;;;;;-2.90;99.90;;;;;;4991987;28;20084;-86
2023/01/21 08:38:09;;;;;;;0.80;0.80;;;-2.90;99.90;;;;;;4989053;28;19917;-87
2023/01/21 08:40:35;;;;;;;0.90;0.90;;;-2.90;99.90;;;;;;4991203;28;20034;-85
2023/01/21 08:43:01;;;;;;;;;;;-2.80;99.90;;;;;;4990280;28;20046;-85
2023/01/21 08:45:28;;;;;;;0.80;0.80;;;-2.80;99.90;;;;;;5003284;28;20295;-87
2023/01/21 08:47:54;;;;;;;0.70;0.70;;;-2.70;99.90;;;;;;4977921;28;20038;-86
2023/01/21 08:50:19;;;;;;;;;;;-2.70;99.90;;;;;;4996394;28;20065;-87
2023/01/21 08:52:52;;;;;;;0.65;0.65;;;-2.70;99.90;;;;;;4986190;28;20363;-86
2023/01/21 08:55:19;;;;;;;0.80;0.80;;;-2.60;99.90;;;;;;4986944;28;20500;-86
2023/01/21 08:57:47;;;;;;;0.70;0.70;;;-1.90;99.90;;;;;;4988986;28;20038;-87
2023/01/21 09:00:13;;;;;;;0.82;0.82;;;-1.10;99.90;;;;;;5011536;28;20046;-87
2023/01/21 09:02:39;;;;;;;0.95;0.95;;;-2.50;99.90;;;;;;4999142;28;20038;-86
2023/01/21 09:05:05;;;;;;;0.80;0.80;;;-2.40;99.90;;;;;;4993989;28;20045;-86
2023/01/21 09:07:31;;;;;;;0.70;0.70;;;-2.50;99.90;;;;;;4991841;28;20038;-87
2023/01/21 09:09:56;;;;;;;0.80;0.80;;;-1.30;99.90;;;;;;4944457;28;20084;-85
2023/01/21 09:12:22;;;;;;;0.80;0.80;;;-2.00;99.90;;;;;;4998851;28;20093;-86
2023/01/21 09:14:48;;;;;;;;;;;-2.40;99.90;;;;;;4944048;28;20048;-86
2023/01/21 09:17:14;;;;;;;0.90;0.90;;;-2.40;99.90;;;;;;4988909;28;19923;-86
2023/01/21 09:19:39;;;;;;;;;;;-1.20;99.90;;;;;;4959551;28;20073;-86
2023/01/21 09:22:05;;;;;;;0.80;0.80;;;-2.50;99.90;;;;;;4957386;28;19933;-85
2023/01/21 09:24:31;;;;;;;;;;;-2.70;99.90;;;;;;4993825;28;20042;-87
2023/01/21 09:26:56;;;;;;;0.70;0.70;;;-2.40;99.90;;;;;;4993247;28;19917;-87
2023/01/21 09:29:22;;;;;;;;;;;-2.20;99.90;;;;;;4977687;28;20073;-87
2023/01/21 09:31:48;;;;;;;0.80;0.80;;;-2.20;99.90;;;;;;4977039;28;19996;-87
2023/01/21 09:34:13;;;;;;;;;;;-2.20;99.90;;;;;;5002092;28;20050;-87
2023/01/21 09:36:39;;;;;;;0.88;0.88;;;-1.30;99.90;;;;;;4990749;28;19917;-87
2023/01/21 09:39:05;;;;;;;;;;;-2.20;99.90;;;;;;4996004;28;20067;-88
2023/01/21 09:41:57;;;;;;;0.85;0.85;;;-1.60;99.90;;;;;;4998489;28;19933;-88
2023/01/21 09:44:30;;;;;;;0.70;0.70;;;-2.20;99.90;;;;;;4990679;28;20104;-87
2023/01/21 09:47:08;;;;;;;0.60;0.60;;;-2.20;99.90;;;;;;4989252;28;20030;-90
2023/01/21 09:49:50;;;;;;;1.13;1.05;;;-2.10;99.90;;;;;;4976906;28;20485;-89
2023/01/21 09:52:25;;;;;;;0.80;0.80;;;-2.00;99.90;;;;;;4981214;28;20034;-88
2023/01/21 09:54:51;;;;;;;0.88;0.88;;;-1.80;99.90;;;;;;4984390;28;20401;-86
2023/01/21 09:57:40;;;;;;;0.80;0.80;;;-1.40;99.90;;;;;;4993726;28;20050;-87
2023/01/21 10:00:24;;;;;;;0.60;0.60;;;-1.10;99.90;;;;;;4986717;28;20045;-88
2023/01/21 10:03:27;;;;;;;0.60;0.60;;;-0.90;99.90;;;;;;4977121;28;20436;-89
2023/01/21 10:06:14;;;;;;;0.80;0.80;;;-0.70;99.90;;;;;;4994956;28;20051;-88
2023/01/21 10:08:58;;;;;;;;;;;-0.50;99.90;;;;;;4976206;28;20046;-88
2023/01/21 10:11:36;;;;;;;1.20;1.20;;;-0.40;99.90;;;;;;4996136;28;19995;-88
2023/01/21 10:14:28;;;;;;;0.70;0.70;;;0.70;99.90;;;;;;4995032;28;20042;-88
2023/01/21 10:17:05;;;;;;;0.80;0.80;;;-0.20;99.90;;;;;;5003871;28;20034;-88
2023/01/21 10:19:34;;;;;;;;;;;1.10;99.90;;;;;;4974289;28;20369;-88
2023/01/21 10:22:08;;;;;;;1.55;1.45;;;0.00;99.90;;;;;;4992044;28;19917;-88
2023/01/21 10:24:45;;;;;;;2.30;2.15;;;0.10;99.90;;;;;;4991253;28;20038;-87
2023/01/21 10:27:17;;;;;;;0.80;0.80;;;0.20;99.90;;;;;;4989204;28;20071;-87
2023/01/21 10:29:45;;;;;;;0.60;0.60;;;1.60;99.90;;;;;;4979772;28;20038;-86
2023/01/21 10:32:21;;;;;;;0.70;0.70;;;0.30;99.90;;;;;;4976335;28;20042;-87
2023/01/21 10:34:50;;;;;;;0.70;0.70;;;1.20;99.90;;;;;;4970909;28;20031;-87
2023/01/21 10:37:49;;;;;;;0.70;0.70;;;1.90;99.90;;;;;;4973997;28;20038;-87
2023/01/21 10:40:44;;;;;;;0.70;0.70;;;0.50;99.90;;;;;;4985811;28;20038;-87
2023/01/21 10:43:42;;;;;;;0.60;0.60;;;0.60;99.90;;;;;;4978311;28;20499;-88
2023/01/21 10:46:32;;;;;;;0.80;0.80;;;0.70;99.90;;;;;;4995947;28;20077;-86
2023/01/21 10:49:30;;;;;;;0.57;0.57;;;2.50;99.90;;;;;;4973504;28;20046;-88
2023/01/21 10:52:04;;;;;;;1.63;1.52;;;1.10;99.90;;;;;;5004980;28;20034;-87
2023/01/21 10:55:06;;;;;;;0.70;0.70;;;2.70;99.90;;;;;;4991732;28;20049;-87
2023/01/21 10:57:38;;;;;;;0.65;0.65;;;1.20;99.90;;;;;;4991151;28;20050;-87
2023/01/21 11:00:30;;;;;;;0.73;0.73;;;1.30;99.90;;;;;;4970089;28;20046;-87
2023/01/21 11:03:03;;;;;;;0.82;0.82;;;1.30;99.90;;;;;;4973366;28;20133;-87
2023/01/21 11:05:31;;;;;;;0.70;0.70;;;1.30;99.90;;;;;;4990984;28;20043;-88
2023/01/21 11:07:57;;;;;;;0.65;0.65;;;1.30;99.90;;;;;;4991591;28;20048;-87
2023/01/21 11:10:25;;;;;;;0.50;0.50;;;1.30;99.90;;;;;;4989755;28;20050;-88
2023/01/21 11:12:53;;;;;;;0.70;0.70;;;1.30;99.90;;;;;;4977068;28;20050;-88
2023/01/21 11:15:20;;;;;;;0.70;0.70;;;2.40;99.90;;;;;;4999456;28;20034;-89
2023/01/21 11:17:48;;;;;;;0.60;0.60;;;2.00;99.90;;;;;;4999840;28;20044;-87
2023/01/21 11:20:22;;;;;;;0.70;0.70;;;1.40;99.90;;;;;;4996353;28;20042;-89
2023/01/21 11:22:49;;;;;;;0.60;0.60;;;1.40;99.90;;;;;;4971352;28;20058;-86
2023/01/21 11:25:40;;;;;;;0.70;0.70;;;1.40;99.90;;;;;;4979548;28;20365;-88
2023/01/21 11:28:23;;;;;;;0.70;0.70;;;1.50;99.90;;;;;;4974282;28;20506;-88
2023/01/21 11:30:48;;;;;;;0.75;0.75;;;1.50;99.90;;;;;;4971670;28;20049;-89
2023/01/21 11:33:17;;;;;;;0.70;0.70;;;1.60;99.90;;;;;;4990530;28;20046;-87
2023/01/21 11:35:43;;;;;;;0.70;0.70;;;1.60;99.90;;;;;;4981058;28;20098;-88
2023/01/21 11:38:28;;;;;;;0.80;0.80;;;2.50;99.90;;;;;;4960799;28;20125;-88
2023/01/21 11:41:21;;;;;;;0.70;0.70;;;1.70;99.90;;;;;;4975070;28;20041;-86
2023/01/21 11:43:50;;;;;;;0.82;0.82;;;1.80;99.90;;;;;;4990806;28;20050;-88
2023/01/21 11:46:37;;;;;;;0.73;0.73;;;2.20;99.90;;;;;;4971216;28;20046;-88
2023/01/21 11:49:27;;;;;;;0.60;0.60;;;2.00;99.90;;;;;;4974409;28;20038;-88
2023/01/21 11:52:16;;;;;;;0.65;0.65;;;2.10;99.90;;;;;;4986502;28;20066;-87
2023/01/21 11:54:42;;;;;;;0.70;0.70;;;2.10;99.90;;;;;;4956164;28;20041;-88
2023/01/21 11:57:18;;;;;;;;;;;2.10;99.90;;;;;;4950254;28;20496;-87
2023/01/21 11:59:45;;;;;;;0.60;0.60;;;2.20;99.90;;;;;;4996360;28;19940;-87
2023/01/21 12:02:25;;;;;;;0.70;0.70;;;3.90;99.90;;;;;;4978730;28;20050;-88
2023/01/21 12:04:55;;;;;;;0.60;0.60;;;2.20;99.90;;;;;;4982696;28;20034;-88
2023/01/21 12:07:26;;;;;;;0.70;0.70;;;2.20;99.90;;;;;;4985855;28;20081;-86
2023/01/21 12:10:18;;;;;;;0.60;0.60;;;2.30;99.90;;;;;;4989294;28;20543;-86
2023/01/21 12:13:19;;;;;;;0.50;0.50;;;2.30;99.90;;;;;;4985154;28;20388;-86
2023/01/21 12:15:54;;;;;;;0.70;0.70;;;2.40;99.90;;;;;;4941779;28;20089;-87
2023/01/21 12:18:51;;;;;;;0.60;0.60;;;2.40;99.90;;;;;;5003677;28;20092;-87
2023/01/21 12:21:39;;;;;;;0.80;0.80;;;2.50;99.90;;;;;;4986453;28;20057;-88
2023/01/21 12:24:47;;;;;;;0.57;0.57;;;3.00;99.90;;;;;;5009419;28;20322;-87
2023/01/21 12:27:31;;;;;;;0.70;0.70;;;2.60;99.90;;;;;;4993644;28;20057;-86
2023/01/21 12:30:06;;;;;;;0.70;0.70;;;2.70;99.90;;;;;;5001001;28;20083;-88
2023/01/21 12:32:50;;;;;;;0.60;0.60;;;2.80;99.90;;;;;;4999100;28;20130;-87
2023/01/21 12:35:43;;;;;;;0.60;0.60;;;2.80;99.90;;;;;;4990500;28;20042;-85
2023/01/21 12:38:19;;;;;;;0.65;0.65;;;2.90;99.90;;;;;;5007637;28;20374;-88
2023/01/21 12:40:49;;;;;;;0.68;0.68;;;3.00;99.90;;;;;;4998053;28;20035;-87
2023/01/21 12:43:25;;;;;;;0.63;0.63;;;3.10;99.90;;;;;;4989170;28;20049;-87
2023/01/21 12:46:01;;;;;;;0.60;0.60;;;3.20;99.90;;;;;;5002416;28;20133;-86
2023/01/21 12:48:32;;;;;;;0.73;0.73;;;3.20;99.90;;;;;;5013711;28;20046;-85
2023/01/21 12:51:15;;;;;;;0.70;0.70;;;3.20;99.90;;;;;;4998665;28;20053;-86
2023/01/21 12:54:16;;;;;;;0.50;0.50;;;3.20;99.90;;;;;;4999457;28;20066;-88
2023/01/21 12:56:48;;;;;;;1.00;1.00;;;3.10;99.90;;;;;;4988063;28;20084;-87
2023/01/21 12:59:22;;;;;;;0.60;0.60;;;3.10;99.90;;;;;;5002973;28;20046;-87
2023/01/21 13:02:09;;;;;;;0.60;0.60;;;3.50;99.90;;;;;;5026773;28;20046;-85
2023/01/21 13:04:47;;;;;;;0.70;0.70;;;3.10;99.90;;;;;;4997810;28;20076;-84
2023/01/21 13:07:29;;;;;;;0.60;0.60;;;3.10;99.90;;;;;;4988309;28;20181;-90
2023/01/21 13:10:18;;;;;;;0.60;0.60;;;3.20;99.90;;;;;;4978016;28;20073;-86
2023/01/21 13:12:55;;;;;;;0.70;0.70;;;3.10;99.90;;;;;;5008773;28;20044;-87
2023/01/21 13:15:26;;;;;;;0.70;0.70;;;3.10;99.90;;;;;;4993064;28;20050;-88
2023/01/21 13:17:58;;;;;;;0.77;0.77;;;3.10;99.90;;;;;;4989073;28;20070;-89
2023/01/21 13:20:25;;;;;;;0.73;0.73;;;3.10;99.90;;;;;;4984517;28;20046;-86
2023/01/21 13:23:12;;;;;;;0.70;0.70;;;3.20;99.90;;;;;;4998115;28;20046;-87
2023/01/21 13:25:57;;;;;;;0.93;0.93;;;3.30;99.90;;;;;;4996780;28;20092;-86
2023/01/21 13:28:43;;;;;;;0.57;0.57;;;3.20;99.90;;;;;;4993542;28;20043;-88